Time;durP1;ratioP1;P1;durP2;ratioP2;P2;SDS_P1;SDS_P2;PMS_P1;PMS_P2;Temp;Humidity;BMP_temperature;BMP_pressure;BME280_temperature;BME280_humidity;BME280_pressure;Samples;Min_cycle;Max_cycle;Signal;HPM_P1;HPM_P2
2024/01/12 00:00:21;;;;;;;14.57;5.22;;;;;;;;;;1037405;28;20080;-65
2024/01/12 00:01:12;;;;;;;9.10;4.35;;;;;;;;;;1035658;28;20076;-64
2024/01/12 00:01:53;;;;;;;14.77;4.25;;;;;;;;;;1035862;28;20175;-66
2024/01/12 00:02:23;;;;;;;12.73;4.75;;;;;;;;;;1035690;28;20092;-66
2024/01/12 00:02:54;;;;;;;12.10;5.32;;;;;;;;;;1036063;28;20504;-65
2024/01/12 00:03:24;;;;;;;11.60;4.95;;;;;;;;;;1036937;28;20033;-65
2024/01/12 00:03:55;;;;;;;14.45;5.00;;;;;;;;;;1041072;28;20052;-63
2024/01/12 00:04:26;;;;;;;12.15;4.72;;;;;;;;;;1041450;28;20064;-65
2024/01/12 00:04:56;;;;;;;8.75;4.10;;;;;;;;;;1041680;28;20045;-64
2024/01/12 00:05:27;;;;;;;15.15;5.15;;;;;;;;;;1040550;28;20049;-66
2024/01/12 00:05:57;;;;;;;13.02;4.78;;;;;;;;;;1041470;28;20049;-65
2024/01/12 00:06:28;;;;;;;10.82;4.22;;;;;;;;;;1040874;28;20053;-64
2024/01/12 00:06:59;;;;;;;11.13;4.97;;;;;;;;;;1040048;28;20695;-64
2024/01/12 00:07:29;;;;;;;12.50;5.18;;;;;;;;;;1040828;28;20132;-66
2024/01/12 00:08:00;;;;;;;10.27;4.53;;;;;;;;;;1040965;28;20768;-64
2024/01/12 00:08:32;;;;;;;11.05;4.97;;;;;;;;;;1039246;28;20125;-66
2024/01/12 00:09:03;;;;;;;12.27;4.63;;;;;;;;;;1039454;28;20807;-64
2024/01/12 00:09:34;;;;;;;15.02;5.10;;;;;;;;;;1039302;28;20064;-65
2024/01/12 00:10:05;;;;;;;11.02;4.85;;;;;;;;;;1041139;28;20053;-64
2024/01/12 00:10:35;;;;;;;11.40;4.85;;;;;;;;;;1040601;28;20044;-64
2024/01/12 00:11:09;;;;;;;13.63;4.55;;;;;;;;;;1041440;28;20080;-65
2024/01/12 00:11:39;;;;;;;9.38;4.85;;;;;;;;;;1040777;28;20083;-63
2024/01/12 00:12:10;;;;;;;12.10;4.82;;;;;;;;;;1039943;28;20060;-65
2024/01/12 00:12:40;;;;;;;11.70;5.30;;;;;;;;;;1040994;28;20796;-65
2024/01/12 00:13:11;;;;;;;10.63;4.90;;;;;;;;;;1041270;28;20053;-64
2024/01/12 00:13:41;;;;;;;10.65;4.90;;;;;;;;;;1039271;28;20057;-64
2024/01/12 00:14:14;;;;;;;16.80;5.50;;;;;;;;;;1040152;28;20074;-66
2024/01/12 00:14:44;;;;;;;8.68;4.70;;;;;;;;;;1040299;28;20080;-65
2024/01/12 00:15:15;;;;;;;13.55;4.75;;;;;;;;;;1038976;28;20060;-64
2024/01/12 00:15:46;;;;;;;12.40;5.07;;;;;;;;;;1039235;28;20130;-65
2024/01/12 00:16:20;;;;;;;15.02;5.13;;;;;;;;;;1041620;28;20049;-63
2024/01/12 00:16:50;;;;;;;12.15;4.95;;;;;;;;;;1039643;28;20042;-64
2024/01/12 00:17:21;;;;;;;11.15;4.93;;;;;;;;;;1041912;28;20048;-64
2024/01/12 00:17:51;;;;;;;13.05;5.15;;;;;;;;;;1039863;28;20060;-66
2024/01/12 00:18:22;;;;;;;9.43;4.50;;;;;;;;;;1041687;28;20053;-66
2024/01/12 00:18:52;;;;;;;11.68;4.95;;;;;;;;;;1039089;28;20052;-66
2024/01/12 00:19:23;;;;;;;11.73;5.18;;;;;;;;;;1042229;28;20048;-65
2024/01/12 00:19:54;;;;;;;12.38;4.95;;;;;;;;;;1040661;28;20056;-64
2024/01/12 00:20:24;;;;;;;12.85;4.45;;;;;;;;;;1038816;28;20745;-63
2024/01/12 00:20:55;;;;;;;15.15;5.45;;;;;;;;;;1041433;28;20098;-63
2024/01/12 00:21:26;;;;;;;11.25;5.10;;;;;;;;;;1040331;28;20056;-65
2024/01/12 00:21:56;;;;;;;14.65;5.30;;;;;;;;;;1042115;28;20056;-64
2024/01/12 00:22:27;;;;;;;11.00;4.75;;;;;;;;;;1040057;28;20053;-65
2024/01/12 00:22:57;;;;;;;12.00;5.38;;;;;;;;;;1040669;28;20091;-63
2024/01/12 00:23:28;;;;;;;12.82;5.20;;;;;;;;;;1041670;28;20041;-65
2024/01/12 00:23:58;;;;;;;11.77;4.85;;;;;;;;;;1041920;28;20051;-63
2024/01/12 00:24:29;;;;;;;14.10;5.47;;;;;;;;;;1040869;28;20060;-63
2024/01/12 00:24:59;;;;;;;12.48;5.30;;;;;;;;;;1042717;28;20041;-65
2024/01/12 00:25:30;;;;;;;18.50;5.60;;;;;;;;;;1041852;28;20074;-63
2024/01/12 00:26:00;;;;;;;14.32;5.18;;;;;;;;;;1042009;28;20088;-63
2024/01/12 00:26:31;;;;;;;12.00;4.82;;;;;;;;;;1040135;28;22471;-64
2024/01/12 00:27:01;;;;;;;14.18;5.13;;;;;;;;;;1040890;28;20056;-63
2024/01/12 00:27:32;;;;;;;16.95;5.43;;;;;;;;;;1041814;28;21550;-64
2024/01/12 00:28:02;;;;;;;16.02;5.90;;;;;;;;;;1042748;28;20537;-64
2024/01/12 00:28:33;;;;;;;10.60;5.22;;;;;;;;;;1041941;28;20049;-66
2024/01/12 00:29:03;;;;;;;15.90;6.50;;;;;;;;;;1042964;28;20397;-64
2024/01/12 00:29:34;;;;;;;13.07;5.22;;;;;;;;;;1041189;28;20041;-65
2024/01/12 00:30:06;;;;;;;12.32;4.70;;;;;;;;;;1042289;28;20048;-64
2024/01/12 00:30:36;;;;;;;11.70;5.35;;;;;;;;;;1040435;28;20127;-65
2024/01/12 00:31:07;;;;;;;12.65;5.28;;;;;;;;;;1042499;28;20095;-65
2024/01/12 00:31:37;;;;;;;12.52;5.47;;;;;;;;;;1041276;28;20056;-66
2024/01/12 00:32:08;;;;;;;15.77;5.97;;;;;;;;;;1041093;28;20710;-65
2024/01/12 00:32:39;;;;;;;13.73;4.97;;;;;;;;;;1040605;28;20409;-66
2024/01/12 00:33:09;;;;;;;10.60;5.38;;;;;;;;;;1041329;28;20120;-64
2024/01/12 00:33:40;;;;;;;14.73;5.45;;;;;;;;;;1042388;28;20052;-65
2024/01/12 00:34:10;;;;;;;12.82;5.72;;;;;;;;;;1040286;28;20069;-64
2024/01/12 00:34:41;;;;;;;14.02;5.68;;;;;;;;;;1042094;28;20409;-63
2024/01/12 00:35:11;;;;;;;15.00;6.32;;;;;;;;;;1041780;28;20591;-65
2024/01/12 00:35:42;;;;;;;13.68;5.68;;;;;;;;;;1042243;28;20111;-65
2024/01/12 00:36:12;;;;;;;14.25;6.10;;;;;;;;;;1041751;28;20603;-64
2024/01/12 00:36:43;;;;;;;12.05;5.35;;;;;;;;;;1041296;28;20095;-65
2024/01/12 00:37:13;;;;;;;14.45;5.68;;;;;;;;;;1041183;28;20622;-65
2024/01/12 00:37:44;;;;;;;12.35;4.97;;;;;;;;;;1041921;28;20061;-63
2024/01/12 00:38:15;;;;;;;14.57;5.68;;;;;;;;;;1042037;28;20389;-65
2024/01/12 00:38:45;;;;;;;12.38;5.65;;;;;;;;;;1041920;28;20056;-64
2024/01/12 00:39:17;;;;;;;14.95;4.97;;;;;;;;;;1042471;28;20060;-63
2024/01/12 00:39:47;;;;;;;10.05;4.65;;;;;;;;;;1040319;28;20401;-65
2024/01/12 00:40:18;;;;;;;14.35;5.97;;;;;;;;;;1041551;28;20401;-66
2024/01/12 00:40:48;;;;;;;12.48;5.55;;;;;;;;;;1042574;28;20045;-64
2024/01/12 00:41:19;;;;;;;11.50;5.13;;;;;;;;;;1041667;28;20630;-64
2024/01/12 00:41:50;;;;;;;10.38;5.15;;;;;;;;;;1041738;28;20624;-66
2024/01/12 00:42:21;;;;;;;13.00;5.40;;;;;;;;;;1042345;28;20187;-65
2024/01/12 00:42:51;;;;;;;11.98;4.55;;;;;;;;;;1042047;28;20052;-63
2024/01/12 00:43:22;;;;;;;13.98;4.57;;;;;;;;;;1040713;28;20053;-65
2024/01/12 00:43:52;;;;;;;11.63;5.25;;;;;;;;;;1042458;28;20049;-65
2024/01/12 00:44:23;;;;;;;15.55;4.80;;;;;;;;;;1042669;28;20079;-63
2024/01/12 00:44:54;;;;;;;11.63;4.65;;;;;;;;;;1042054;28;20048;-66
2024/01/12 00:45:24;;;;;;;15.27;4.68;;;;;;;;;;1042182;28;20664;-64
2024/01/12 00:45:55;;;;;;;10.73;5.13;;;;;;;;;;1042079;28;20098;-64
2024/01/12 00:46:25;;;;;;;12.15;5.18;;;;;;;;;;1042411;28;20094;-66
2024/01/12 00:46:56;;;;;;;12.23;4.53;;;;;;;;;;1041020;28;20084;-66
2024/01/12 00:47:26;;;;;;;11.02;4.50;;;;;;;;;;1043080;28;20784;-64
2024/01/12 00:47:57;;;;;;;14.73;5.25;;;;;;;;;;1042047;28;20045;-64
2024/01/12 00:48:27;;;;;;;13.07;5.13;;;;;;;;;;1042300;28;20043;-64
2024/01/12 00:48:58;;;;;;;11.25;5.00;;;;;;;;;;1041564;28;20594;-66
2024/01/12 00:49:28;;;;;;;14.75;4.95;;;;;;;;;;1041740;28;20618;-65
2024/01/12 00:49:59;;;;;;;11.00;5.03;;;;;;;;;;1040469;28;20049;-64
2024/01/12 00:50:29;;;;;;;11.05;5.13;;;;;;;;;;1041887;28;20045;-64
2024/01/12 00:51:00;;;;;;;14.85;5.38;;;;;;;;;;1042641;28;20136;-64
2024/01/12 00:51:30;;;;;;;13.55;5.07;;;;;;;;;;1040697;28;20049;-64
2024/01/12 00:52:01;;;;;;;10.43;4.78;;;;;;;;;;1041137;28;20053;-66
2024/01/12 00:52:32;;;;;;;14.57;4.88;;;;;;;;;;1039175;28;20056;-64
2024/01/12 00:53:02;;;;;;;13.52;6.13;;;;;;;;;;1039828;28;20049;-66
2024/01/12 00:53:33;;;;;;;11.10;5.40;;;;;;;;;;1039152;28;20056;-65
2024/01/12 00:54:03;;;;;;;12.13;5.10;;;;;;;;;;1039908;28;20144;-66
2024/01/12 00:54:34;;;;;;;12.02;5.30;;;;;;;;;;1040871;28;20069;-63
2024/01/12 00:55:05;;;;;;;9.98;4.93;;;;;;;;;;1042725;28;20049;-63
2024/01/12 00:55:35;;;;;;;10.15;4.72;;;;;;;;;;1039287;28;20489;-64
2024/01/12 00:56:07;;;;;;;11.45;5.35;;;;;;;;;;1041703;28;20060;-64
2024/01/12 00:56:38;;;;;;;12.18;5.05;;;;;;;;;;1041730;28;20550;-65
2024/01/12 00:57:08;;;;;;;12.25;5.13;;;;;;;;;;1041398;28;20470;-66
2024/01/12 00:57:38;;;;;;;9.60;4.82;;;;;;;;;;1040407;28;20053;-66
2024/01/12 00:58:09;;;;;;;9.68;4.70;;;;;;;;;;1040183;28;20045;-64
2024/01/12 00:58:40;;;;;;;10.68;4.72;;;;;;;;;;1041316;28;20131;-64
2024/01/12 00:59:10;;;;;;;13.68;5.20;;;;;;;;;;1041968;28;20045;-65
2024/01/12 00:59:41;;;;;;;10.73;5.15;;;;;;;;;;1041814;28;20382;-67
2024/01/12 01:00:12;;;;;;;13.32;5.57;;;;;;;;;;1041079;28;20049;-65
2024/01/12 01:00:43;;;;;;;14.50;4.80;;;;;;;;;;1040713;28;20140;-63
2024/01/12 01:01:13;;;;;;;12.27;5.00;;;;;;;;;;1042515;28;20114;-64
2024/01/12 01:01:44;;;;;;;9.38;4.68;;;;;;;;;;1041081;28;20049;-64
2024/01/12 01:02:14;;;;;;;11.15;4.75;;;;;;;;;;1040739;28;20053;-64
2024/01/12 01:02:45;;;;;;;9.43;4.63;;;;;;;;;;1037641;28;20143;-64
2024/01/12 01:03:16;;;;;;;10.98;4.97;;;;;;;;;;1040368;28;20516;-65
2024/01/12 01:03:47;;;;;;;12.18;5.63;;;;;;;;;;1038457;28;20106;-65
2024/01/12 01:04:17;;;;;;;11.88;5.15;;;;;;;;;;1039364;28;20094;-64
2024/01/12 01:04:48;;;;;;;9.63;5.68;;;;;;;;;;1037963;28;20164;-63
2024/01/12 01:05:18;;;;;;;11.85;5.28;;;;;;;;;;1039062;28;20072;-65
2024/01/12 01:05:49;;;;;;;11.50;5.47;;;;;;;;;;1038716;28;20053;-64
2024/01/12 01:06:20;;;;;;;11.20;5.50;;;;;;;;;;1038627;28;20440;-64
2024/01/12 01:06:50;;;;;;;11.50;4.72;;;;;;;;;;1038340;28;20103;-64
2024/01/12 01:07:21;;;;;;;14.02;5.57;;;;;;;;;;1038223;28;20148;-64
2024/01/12 01:07:51;;;;;;;12.98;5.88;;;;;;;;;;1040617;28;20087;-66
2024/01/12 01:08:22;;;;;;;12.52;5.07;;;;;;;;;;1038840;28;20052;-63
2024/01/12 01:08:52;;;;;;;12.52;5.32;;;;;;;;;;1039196;28;20699;-66
2024/01/12 01:09:23;;;;;;;11.07;5.60;;;;;;;;;;1038878;28;20136;-64
2024/01/12 01:09:54;;;;;;;14.20;6.35;;;;;;;;;;1038326;28;20611;-65
2024/01/12 01:10:24;;;;;;;10.10;5.20;;;;;;;;;;1038845;28;20061;-63
2024/01/12 01:10:55;;;;;;;13.57;4.68;;;;;;;;;;1039311;28;20076;-63
2024/01/12 01:11:25;;;;;;;13.60;5.20;;;;;;;;;;1040110;28;20512;-66
2024/01/12 01:11:56;;;;;;;12.35;5.43;;;;;;;;;;1039712;28;21654;-65
2024/01/12 01:12:26;;;;;;;15.18;5.90;;;;;;;;;;1038576;28;20172;-65
2024/01/12 01:12:57;;;;;;;14.93;5.45;;;;;;;;;;1039892;28;20561;-63
2024/01/12 01:13:27;;;;;;;16.23;5.68;;;;;;;;;;1037560;28;20060;-64
2024/01/12 01:13:58;;;;;;;13.48;4.93;;;;;;;;;;1041815;28;20056;-65
2024/01/12 01:14:28;;;;;;;12.90;5.45;;;;;;;;;;1039471;28;20045;-65
2024/01/12 01:14:59;;;;;;;11.93;5.70;;;;;;;;;;1041068;28;20049;-65
2024/01/12 01:15:29;;;;;;;12.45;5.15;;;;;;;;;;1038731;28;20044;-65
2024/01/12 01:16:00;;;;;;;9.50;5.00;;;;;;;;;;1039252;28;20049;-63
2024/01/12 01:16:30;;;;;;;12.52;5.78;;;;;;;;;;1038831;28;20070;-65
2024/01/12 01:17:01;;;;;;;18.60;5.97;;;;;;;;;;1039232;28;20052;-64
2024/01/12 01:17:32;;;;;;;18.35;6.75;;;;;;;;;;1038959;28;20045;-66
2024/01/12 01:18:02;;;;;;;14.23;6.57;;;;;;;;;;1039345;28;20963;-65
2024/01/12 01:18:33;;;;;;;13.50;5.88;;;;;;;;;;1038221;28;20063;-65
2024/01/12 01:19:04;;;;;;;21.02;6.68;;;;;;;;;;1039134;28;20049;-64
2024/01/12 01:19:35;;;;;;;15.63;6.75;;;;;;;;;;1039754;28;20049;-65
2024/01/12 01:20:07;;;;;;;16.95;7.03;;;;;;;;;;1039098;28;20052;-64
2024/01/12 01:20:38;;;;;;;17.55;6.25;;;;;;;;;;1039152;28;20056;-64
2024/01/12 01:21:09;;;;;;;13.63;5.97;;;;;;;;;;1038795;28;20056;-63
2024/01/12 01:21:39;;;;;;;13.50;5.82;;;;;;;;;;1039216;28;20052;-64
2024/01/12 01:22:10;;;;;;;15.35;5.90;;;;;;;;;;1037809;28;20505;-65
2024/01/12 01:22:40;;;;;;;15.10;6.53;;;;;;;;;;1038004;28;20053;-65
2024/01/12 01:23:11;;;;;;;16.02;6.95;;;;;;;;;;1041680;28;21050;-65
2024/01/12 01:23:41;;;;;;;11.90;6.22;;;;;;;;;;1039252;28;20053;-64
2024/01/12 01:24:12;;;;;;;17.08;6.55;;;;;;;;;;1038735;28;20124;-63
2024/01/12 01:24:43;;;;;;;19.75;7.40;;;;;;;;;;1038826;28;20057;-64
2024/01/12 01:25:13;;;;;;;14.45;5.95;;;;;;;;;;1038934;28;20066;-65
2024/01/12 01:25:44;;;;;;;13.35;5.90;;;;;;;;;;1038593;28;20482;-64
2024/01/12 01:26:14;;;;;;;16.15;5.85;;;;;;;;;;1039318;28;20041;-64
2024/01/12 01:26:44;;;;;;;21.00;5.70;;;;;;;;;;1040372;28;20065;-66
2024/01/12 01:27:15;;;;;;;10.38;5.80;;;;;;;;;;1040665;28;20049;-65
2024/01/12 01:27:46;;;;;;;15.15;5.75;;;;;;;;;;1039301;28;20054;-65
2024/01/12 01:28:17;;;;;;;13.75;5.65;;;;;;;;;;1039882;28;20053;-65
2024/01/12 01:28:47;;;;;;;13.20;5.80;;;;;;;;;;1038754;28;20847;-63
2024/01/12 01:29:18;;;;;;;13.73;6.22;;;;;;;;;;1040416;28;20044;-65
2024/01/12 01:29:48;;;;;;;12.25;5.38;;;;;;;;;;1038348;28;20479;-64
2024/01/12 01:30:19;;;;;;;12.55;5.50;;;;;;;;;;1038608;28;20621;-64
2024/01/12 01:30:49;;;;;;;12.98;5.20;;;;;;;;;;1040881;28;20075;-63
2024/01/12 01:31:20;;;;;;;11.95;5.20;;;;;;;;;;1040484;28;20037;-62
2024/01/12 01:31:50;;;;;;;11.40;5.47;;;;;;;;;;1038803;28;21336;-66
2024/01/12 01:32:21;;;;;;;14.15;6.13;;;;;;;;;;1039033;28;20056;-64
2024/01/12 01:32:51;;;;;;;10.35;4.78;;;;;;;;;;1038563;28;20053;-65
2024/01/12 01:33:22;;;;;;;11.52;6.13;;;;;;;;;;1038184;28;20050;-64
2024/01/12 01:33:52;;;;;;;15.90;5.38;;;;;;;;;;1038654;28;20831;-65
2024/01/12 01:34:23;;;;;;;10.90;5.07;;;;;;;;;;1039634;28;20057;-64
2024/01/12 01:34:54;;;;;;;10.82;5.82;;;;;;;;;;1046088;28;20097;-63
2024/01/12 01:35:24;;;;;;;11.73;5.15;;;;;;;;;;1047581;28;20150;-65
2024/01/12 01:35:55;;;;;;;12.68;5.57;;;;;;;;;;1048661;28;20044;-66
2024/01/12 01:36:25;;;;;;;11.75;5.28;;;;;;;;;;1047251;28;20173;-63
2024/01/12 01:37:01;;;;;;;9.60;5.60;;;;;;;;;;1039109;28;21453;-63
2024/01/12 01:37:32;;;;;;;13.88;5.53;;;;;;;;;;1039568;28;20041;-64
2024/01/12 01:38:03;;;;;;;13.80;5.18;;;;;;;;;;1039103;28;20049;-66
2024/01/12 01:38:34;;;;;;;8.45;4.80;;;;;;;;;;1039227;28;20872;-65
2024/01/12 01:39:04;;;;;;;13.65;5.95;;;;;;;;;;1040215;28;20713;-66
2024/01/12 01:39:35;;;;;;;14.85;5.97;;;;;;;;;;1039753;28;20053;-65
2024/01/12 01:40:07;;;;;;;11.27;5.35;;;;;;;;;;1038608;28;20136;-64
2024/01/12 01:40:38;;;;;;;21.33;6.13;;;;;;;;;;1039180;28;20053;-63
2024/01/12 01:41:08;;;;;;;12.82;6.10;;;;;;;;;;1041570;28;20049;-63
2024/01/12 01:41:38;;;;;;;16.08;5.93;;;;;;;;;;1038950;28;20076;-64
2024/01/12 01:42:09;;;;;;;13.98;5.78;;;;;;;;;;1038905;28;20041;-66
2024/01/12 01:42:40;;;;;;;13.77;6.13;;;;;;;;;;1038934;28;20052;-64
2024/01/12 01:43:11;;;;;;;13.85;5.93;;;;;;;;;;1041713;28;20106;-66
2024/01/12 01:43:41;;;;;;;9.15;5.03;;;;;;;;;;1039297;28;20061;-63
2024/01/12 01:44:12;;;;;;;14.85;5.47;;;;;;;;;;1038558;28;20406;-64
2024/01/12 01:44:42;;;;;;;12.48;5.50;;;;;;;;;;1038952;28;20175;-63
2024/01/12 01:45:13;;;;;;;12.43;6.10;;;;;;;;;;1040000;28;20048;-64
2024/01/12 01:45:44;;;;;;;15.70;6.30;;;;;;;;;;1040031;28;20044;-64
2024/01/12 01:46:15;;;;;;;13.98;5.75;;;;;;;;;;1039574;28;20041;-64
2024/01/12 01:46:46;;;;;;;9.98;5.35;;;;;;;;;;1038006;28;20077;-63
2024/01/12 01:47:16;;;;;;;11.93;5.28;;;;;;;;;;1039100;28;20079;-63
2024/01/12 01:47:47;;;;;;;11.85;5.43;;;;;;;;;;1038733;28;20559;-65
2024/01/12 01:48:18;;;;;;;12.85;6.28;;;;;;;;;;1041531;28;20122;-66
2024/01/12 01:48:48;;;;;;;10.95;4.97;;;;;;;;;;1038487;28;20049;-65
2024/01/12 01:49:20;;;;;;;12.63;5.35;;;;;;;;;;1039623;28;20133;-66
2024/01/12 01:49:50;;;;;;;17.75;5.88;;;;;;;;;;1040736;28;20577;-64
2024/01/12 01:50:21;;;;;;;14.70;5.82;;;;;;;;;;1038738;28;20473;-64
2024/01/12 01:50:53;;;;;;;11.90;5.57;;;;;;;;;;1038439;28;20164;-64
2024/01/12 01:51:24;;;;;;;11.90;5.13;;;;;;;;;;1038442;28;20041;-64
2024/01/12 01:51:54;;;;;;;13.05;5.35;;;;;;;;;;1038142;28;20049;-65
2024/01/12 01:52:27;;;;;;;12.98;5.00;;;;;;;;;;1039560;28;20065;-63
2024/01/12 01:52:58;;;;;;;18.10;6.05;;;;;;;;;;1035136;28;20093;-63
2024/01/12 01:53:29;;;;;;;10.50;4.88;;;;;;;;;;1035679;28;20046;-64
2024/01/12 01:53:59;;;;;;;12.32;6.30;;;;;;;;;;1035404;28;20049;-64
2024/01/12 01:54:33;;;;;;;13.75;5.70;;;;;;;;;;1036299;28;20478;-64
2024/01/12 01:55:04;;;;;;;13.40;5.45;;;;;;;;;;1039812;28;20677;-65
2024/01/12 01:55:35;;;;;;;13.73;6.68;;;;;;;;;;1040098;28;20068;-66
2024/01/12 01:56:05;;;;;;;17.50;5.55;;;;;;;;;;1042222;28;20056;-66
2024/01/12 01:56:38;;;;;;;19.35;7.00;;;;;;;;;;1042491;28;20053;-63
2024/01/12 01:57:10;;;;;;;11.30;5.80;;;;;;;;;;1039941;28;20055;-65
2024/01/12 01:57:42;;;;;;;12.48;6.53;;;;;;;;;;1039129;28;20061;-62
2024/01/12 01:58:12;;;;;;;12.13;5.85;;;;;;;;;;1041149;28;20056;-64
2024/01/12 01:58:43;;;;;;;14.75;6.60;;;;;;;;;;1040058;28;20069;-64
2024/01/12 01:59:15;;;;;;;18.02;6.78;;;;;;;;;;1039842;28;20485;-65
2024/01/12 01:59:46;;;;;;;17.67;6.45;;;;;;;;;;1038241;28;20457;-63
2024/01/12 02:00:17;;;;;;;15.02;5.88;;;;;;;;;;1039030;28;20075;-64
2024/01/12 02:00:50;;;;;;;16.33;6.70;;;;;;;;;;1038276;28;20068;-66
2024/01/12 02:01:21;;;;;;;16.48;7.00;;;;;;;;;;1038861;28;20500;-64
2024/01/12 02:01:51;;;;;;;14.18;6.43;;;;;;;;;;1039233;28;20048;-66
2024/01/12 02:02:23;;;;;;;17.38;5.88;;;;;;;;;;1037888;28;20045;-65
2024/01/12 02:02:54;;;;;;;15.30;6.32;;;;;;;;;;1038797;28;20067;-63
2024/01/12 02:03:25;;;;;;;13.63;7.05;;;;;;;;;;1038466;28;20512;-66
2024/01/12 02:03:56;;;;;;;12.10;5.95;;;;;;;;;;1034681;28;20058;-62
2024/01/12 02:04:27;;;;;;;18.17;7.38;;;;;;;;;;1033799;28;20141;-64
2024/01/12 02:05:01;;;;;;;14.63;6.65;;;;;;;;;;1034003;28;20052;-64
2024/01/12 02:05:34;;;;;;;17.90;7.22;;;;;;;;;;1034416;28;20049;-64
2024/01/12 02:06:05;;;;;;;14.70;6.72;;;;;;;;;;1034357;28;20525;-64
2024/01/12 02:06:36;;;;;;;13.85;6.03;;;;;;;;;;1035038;28;20049;-64
2024/01/12 02:07:07;;;;;;;14.35;7.00;;;;;;;;;;1039162;28;20053;-65
2024/01/12 02:07:38;;;;;;;11.15;6.18;;;;;;;;;;1038499;28;20045;-63
2024/01/12 02:08:08;;;;;;;16.05;7.03;;;;;;;;;;1038392;28;20745;-66
2024/01/12 02:08:39;;;;;;;14.50;7.13;;;;;;;;;;1039405;28;20061;-63
2024/01/12 02:09:10;;;;;;;14.63;7.03;;;;;;;;;;1040306;28;20080;-65
2024/01/12 02:09:40;;;;;;;15.68;7.13;;;;;;;;;;1040928;28;20053;-63
2024/01/12 02:10:11;;;;;;;15.93;7.22;;;;;;;;;;1041823;28;20053;-66
2024/01/12 02:10:42;;;;;;;13.00;6.72;;;;;;;;;;1038858;28;20507;-66
2024/01/12 02:11:12;;;;;;;16.42;7.22;;;;;;;;;;1040316;28;20057;-63
2024/01/12 02:11:43;;;;;;;13.30;6.15;;;;;;;;;;1040042;28;20484;-66
2024/01/12 02:12:14;;;;;;;17.58;7.07;;;;;;;;;;1039084;28;20057;-65
2024/01/12 02:12:44;;;;;;;17.67;6.70;;;;;;;;;;1039565;28;20048;-65
2024/01/12 02:13:15;;;;;;;15.43;6.60;;;;;;;;;;1040122;28;20145;-64
2024/01/12 02:13:45;;;;;;;13.10;6.15;;;;;;;;;;1038795;28;20044;-63
2024/01/12 02:14:16;;;;;;;14.57;6.40;;;;;;;;;;1038584;28;20057;-63
2024/01/12 02:14:46;;;;;;;14.43;6.72;;;;;;;;;;1037667;28;20100;-64
2024/01/12 02:15:18;;;;;;;12.70;6.72;;;;;;;;;;1039564;28;20072;-64
2024/01/12 02:15:48;;;;;;;13.15;5.95;;;;;;;;;;1038171;28;20115;-65
2024/01/12 02:16:19;;;;;;;15.70;7.22;;;;;;;;;;1039760;28;20090;-65
2024/01/12 02:16:49;;;;;;;17.83;8.02;;;;;;;;;;1038667;28;20051;-63
2024/01/12 02:17:20;;;;;;;17.90;8.32;;;;;;;;;;1039955;28;20099;-64
2024/01/12 02:17:51;;;;;;;19.65;8.07;;;;;;;;;;1041174;28;20079;-64
2024/01/12 02:18:21;;;;;;;17.50;7.35;;;;;;;;;;1038385;28;20049;-64
2024/01/12 02:18:52;;;;;;;17.83;7.47;;;;;;;;;;1038458;28;20053;-64
2024/01/12 02:19:23;;;;;;;15.98;7.63;;;;;;;;;;1038665;28;20107;-65
2024/01/12 02:20:00;;;;;;;24.85;7.80;;;;;;;;;;1045860;28;20721;-63
2024/01/12 02:20:30;;;;;;;17.90;7.03;;;;;;;;;;1045658;28;20559;-65
2024/01/12 02:21:01;;;;;;;18.90;6.93;;;;;;;;;;1047458;28;20056;-65
2024/01/12 02:21:31;;;;;;;17.52;7.32;;;;;;;;;;1044420;28;20052;-64
2024/01/12 02:22:02;;;;;;;18.80;7.53;;;;;;;;;;1039312;28;20053;-66
2024/01/12 02:22:33;;;;;;;15.20;6.88;;;;;;;;;;1038664;28;20068;-64
2024/01/12 02:23:03;;;;;;;15.27;6.85;;;;;;;;;;1038125;28;20838;-65
2024/01/12 02:23:34;;;;;;;16.85;6.63;;;;;;;;;;1038199;28;20072;-65
2024/01/12 02:24:04;;;;;;;17.17;7.18;;;;;;;;;;1038056;28;20753;-63
2024/01/12 02:24:35;;;;;;;14.73;6.45;;;;;;;;;;1038984;28;20060;-65
2024/01/12 02:25:07;;;;;;;14.43;6.10;;;;;;;;;;1040782;28;20044;-65
2024/01/12 02:25:38;;;;;;;17.70;6.68;;;;;;;;;;1038033;28;20134;-65
2024/01/12 02:26:09;;;;;;;16.95;6.00;;;;;;;;;;1040140;28;20771;-65
2024/01/12 02:26:40;;;;;;;13.35;5.82;;;;;;;;;;1038851;28;20041;-66
2024/01/12 02:27:10;;;;;;;18.00;6.18;;;;;;;;;;1040203;28;20052;-64
2024/01/12 02:27:41;;;;;;;13.27;6.15;;;;;;;;;;1038811;28;20064;-63
2024/01/12 02:28:12;;;;;;;10.10;5.70;;;;;;;;;;1038960;28;20056;-65
2024/01/12 02:28:43;;;;;;;13.23;5.55;;;;;;;;;;1042369;28;20400;-63
2024/01/12 02:29:14;;;;;;;14.23;6.47;;;;;;;;;;1042742;28;20099;-64
2024/01/12 02:29:45;;;;;;;14.63;5.47;;;;;;;;;;1043114;28;20776;-65
2024/01/12 02:30:16;;;;;;;10.73;5.05;;;;;;;;;;1041644;28;20060;-65
2024/01/12 02:30:47;;;;;;;14.20;5.32;;;;;;;;;;1038666;28;20111;-64
2024/01/12 02:31:18;;;;;;;8.10;4.40;;;;;;;;;;1041876;28;20105;-65
2024/01/12 02:31:49;;;;;;;9.18;4.45;;;;;;;;;;1040722;28;20053;-65
2024/01/12 02:32:20;;;;;;;11.20;4.68;;;;;;;;;;1040514;28;20048;-65
2024/01/12 02:32:51;;;;;;;9.02;4.30;;;;;;;;;;1039874;28;20084;-64
2024/01/12 02:33:21;;;;;;;8.93;4.68;;;;;;;;;;1039698;28;20175;-64
2024/01/12 02:33:52;;;;;;;9.07;4.30;;;;;;;;;;1038873;28;20102;-65
2024/01/12 02:34:23;;;;;;;9.68;3.88;;;;;;;;;;1038881;28;20429;-64
2024/01/12 02:34:53;;;;;;;16.25;3.90;;;;;;;;;;1038831;28;20060;-66
2024/01/12 02:35:24;;;;;;;6.57;3.80;;;;;;;;;;1040296;28;20049;-63
2024/01/12 02:35:54;;;;;;;9.20;3.58;;;;;;;;;;1039986;28;20745;-65
2024/01/12 02:36:26;;;;;;;9.00;3.83;;;;;;;;;;1046916;28;20135;-65
2024/01/12 02:36:57;;;;;;;9.07;4.40;;;;;;;;;;1046428;28;23414;-63
2024/01/12 02:37:27;;;;;;;9.55;4.07;;;;;;;;;;1042125;28;20508;-64
2024/01/12 02:37:58;;;;;;;6.22;3.67;;;;;;;;;;1042385;28;20029;-63
2024/01/12 02:38:28;;;;;;;8.25;3.85;;;;;;;;;;1037858;28;20076;-64
2024/01/12 02:38:59;;;;;;;6.18;3.22;;;;;;;;;;1034516;28;20538;-65
2024/01/12 02:39:29;;;;;;;5.15;3.45;;;;;;;;;;1034335;28;20927;-66
2024/01/12 02:40:00;;;;;;;7.05;3.25;;;;;;;;;;1042612;28;20053;-64
2024/01/12 02:40:30;;;;;;;8.30;3.40;;;;;;;;;;1041725;28;20393;-64
2024/01/12 02:41:01;;;;;;;7.72;3.83;;;;;;;;;;1042466;28;20045;-64
2024/01/12 02:41:31;;;;;;;7.18;3.25;;;;;;;;;;1038914;28;20083;-64
2024/01/12 02:42:02;;;;;;;7.72;3.80;;;;;;;;;;1040725;28;20049;-66
2024/01/12 02:42:32;;;;;;;7.97;3.70;;;;;;;;;;1039839;28;20056;-63
2024/01/12 02:43:03;;;;;;;7.30;3.60;;;;;;;;;;1040805;28;20049;-65
2024/01/12 02:43:33;;;;;;;6.85;3.17;;;;;;;;;;1038787;28;20041;-65
2024/01/12 02:44:04;;;;;;;6.43;3.25;;;;;;;;;;1038913;28;20048;-66
2024/01/12 02:44:35;;;;;;;4.88;3.30;;;;;;;;;;1041630;28;20099;-65
2024/01/12 02:45:05;;;;;;;5.60;3.45;;;;;;;;;;1038743;28;20071;-65
2024/01/12 02:45:36;;;;;;;7.13;3.53;;;;;;;;;;1038234;28;20053;-65
2024/01/12 02:46:06;;;;;;;4.63;3.13;;;;;;;;;;1037739;28;20060;-63
2024/01/12 02:46:37;;;;;;;7.90;3.40;;;;;;;;;;1039729;28;20041;-66
2024/01/12 02:47:07;;;;;;;5.88;3.45;;;;;;;;;;1038482;28;20084;-66
2024/01/12 02:47:38;;;;;;;4.60;2.95;;;;;;;;;;1038073;28;20056;-64
2024/01/12 02:48:09;;;;;;;6.95;3.45;;;;;;;;;;1039386;28;20068;-65
2024/01/12 02:48:39;;;;;;;6.40;3.35;;;;;;;;;;1040921;28;20106;-64
2024/01/12 02:49:10;;;;;;;5.05;3.05;;;;;;;;;;1039108;28;20053;-65
2024/01/12 02:49:43;;;;;;;5.65;3.33;;;;;;;;;;1040112;28;20053;-63
2024/01/12 02:50:13;;;;;;;4.38;2.83;;;;;;;;;;1038121;28;20057;-64
2024/01/12 02:50:44;;;;;;;5.53;3.00;;;;;;;;;;1038757;28;20053;-64
2024/01/12 02:51:14;;;;;;;7.07;3.25;;;;;;;;;;1038706;28;20052;-63
2024/01/12 02:51:45;;;;;;;5.50;2.95;;;;;;;;;;1037904;28;20079;-62
2024/01/12 02:52:16;;;;;;;6.43;2.72;;;;;;;;;;1038153;28;20052;-64
2024/01/12 02:52:46;;;;;;;7.70;2.72;;;;;;;;;;1039110;28;20040;-65
2024/01/12 02:53:18;;;;;;;7.10;3.10;;;;;;;;;;1039036;28;20053;-64
2024/01/12 02:53:48;;;;;;;8.63;3.45;;;;;;;;;;1038752;28;20053;-64
2024/01/12 02:54:18;;;;;;;6.32;3.47;;;;;;;;;;1039157;28;20053;-65
2024/01/12 02:54:49;;;;;;;6.43;3.65;;;;;;;;;;1040664;28;20056;-64
2024/01/12 02:55:20;;;;;;;8.07;3.85;;;;;;;;;;1042397;28;20053;-66
2024/01/12 02:55:50;;;;;;;4.32;2.97;;;;;;;;;;1041468;28;20497;-64
2024/01/12 02:56:21;;;;;;;7.30;3.30;;;;;;;;;;1042365;28;20118;-66
2024/01/12 02:56:52;;;;;;;10.95;3.55;;;;;;;;;;1041089;28;20052;-65
2024/01/12 02:57:22;;;;;;;7.82;3.80;;;;;;;;;;1042217;28;20044;-64
2024/01/12 02:57:53;;;;;;;9.95;4.47;;;;;;;;;;1039861;28;20059;-65
2024/01/12 02:58:23;;;;;;;9.35;4.57;;;;;;;;;;1040908;28;20053;-65
2024/01/12 02:58:54;;;;;;;11.85;5.25;;;;;;;;;;1038689;28;20052;-63
2024/01/12 02:59:24;;;;;;;10.25;4.65;;;;;;;;;;1039182;28;20057;-63
2024/01/12 02:59:55;;;;;;;9.27;4.90;;;;;;;;;;1037670;28;20049;-64
2024/01/12 03:00:25;;;;;;;10.15;5.32;;;;;;;;;;1038410;28;20053;-65
2024/01/12 03:00:56;;;;;;;9.45;4.40;;;;;;;;;;1034581;28;20062;-64
2024/01/12 03:01:27;;;;;;;11.02;4.97;;;;;;;;;;1034566;28;20049;-64
2024/01/12 03:01:58;;;;;;;11.73;5.40;;;;;;;;;;1034719;28;20251;-63
2024/01/12 03:02:28;;;;;;;8.88;4.45;;;;;;;;;;1034128;28;20741;-64
2024/01/12 03:02:59;;;;;;;12.88;5.30;;;;;;;;;;1034985;28;20056;-65